createdAt,value
2016-04-01T00:00:28.034Z,0
2016-04-01T00:01:28.037Z,0
2016-04-01T00:02:28.056Z,0
2016-04-01T00:03:28.199Z,0
2016-04-01T00:04:28.077Z,0
2016-04-01T00:05:28.063Z,0
2016-04-01T00:06:28.082Z,0
2016-04-01T00:07:28.085Z,0
2016-04-01T00:08:28.088Z,0
2016-04-01T00:09:28.105Z,0
2016-04-01T00:10:28.108Z,0
2016-04-01T00:11:28.111Z,0
2016-04-01T00:12:28.130Z,0
2016-04-01T00:13:28.132Z,0
2016-04-01T00:14:28.135Z,0
2016-04-01T00:15:28.152Z,0
2016-04-01T00:16:28.172Z,0
2016-04-01T00:17:28.174Z,0
2016-04-01T00:18:28.223Z,0
2016-04-01T00:19:28.164Z,0
2016-04-01T00:20:28.182Z,0
2016-04-01T00:21:28.200Z,0
2016-04-01T00:22:28.204Z,0
2016-04-01T00:23:28.206Z,0
2016-04-01T00:24:28.224Z,0
2016-04-01T00:25:28.243Z,0
2016-04-01T00:26:28.245Z,0
2016-04-01T00:27:28.264Z,0
2016-04-01T00:28:28.250Z,0
2016-04-01T00:29:28.269Z,0
2016-04-01T00:30:28.256Z,0
2016-04-01T00:31:28.258Z,0
2016-04-01T00:32:28.278Z,0
2016-04-01T00:33:28.233Z,0
2016-04-01T00:34:28.282Z,0
2016-04-01T00:35:28.286Z,0
2016-04-01T00:36:28.303Z,0
2016-04-01T00:37:28.336Z,0
2016-04-01T00:38:28.340Z,0
2016-04-01T00:39:28.342Z,0
2016-04-01T00:40:28.330Z,0
2016-04-01T00:41:28.364Z,0
2016-04-01T00:42:28.350Z,0
2016-04-01T00:43:28.353Z,0
2016-04-01T00:44:28.340Z,0
2016-04-01T00:45:28.358Z,0
2016-04-01T00:46:28.361Z,0
2016-04-01T00:47:28.379Z,0
2016-04-01T00:48:28.523Z,0
2016-04-01T00:49:28.385Z,0
2016-04-01T00:50:28.685Z,0
2016-04-01T00:51:28.422Z,0
2016-04-01T00:52:28.409Z,0
2016-04-01T00:53:28.426Z,0
2016-04-01T00:54:28.446Z,0
2016-04-01T00:55:28.433Z,0
2016-04-01T00:56:28.451Z,0
2016-04-01T00:57:28.454Z,0
2016-04-01T00:58:28.456Z,0
2016-04-01T00:59:28.459Z,0
2016-04-01T01:00:28.462Z,0
2016-04-01T01:01:28.481Z,0
2016-04-01T01:02:28.483Z,0
2016-04-01T01:03:28.595Z,0
2016-04-01T01:04:28.504Z,0
2016-04-01T01:05:28.506Z,0
2016-04-01T01:06:28.525Z,0
2016-04-01T01:07:28.527Z,0
2016-04-01T01:08:28.577Z,0
2016-04-01T01:09:28.533Z,0
2016-04-01T01:10:28.551Z,0
2016-04-01T01:11:28.553Z,0
2016-04-01T01:12:28.572Z,0
2016-04-01T01:13:28.575Z,0
2016-04-01T01:14:28.577Z,0
2016-04-01T01:15:28.580Z,0
2016-04-01T01:16:28.583Z,0
2016-04-01T01:17:28.601Z,0
2016-04-01T01:18:28.666Z,0
2016-04-01T01:19:28.607Z,0
2016-04-01T01:20:28.609Z,0
2016-04-01T01:21:28.627Z,0
2016-04-01T01:22:28.646Z,0
2016-04-01T01:23:28.664Z,0
2016-04-01T01:24:28.651Z,0
2016-04-01T01:25:28.670Z,0
2016-04-01T01:26:28.656Z,0
2016-04-01T01:27:28.675Z,0
2016-04-01T01:28:28.678Z,0
2016-04-01T01:29:28.681Z,0
2016-04-01T01:30:28.683Z,0
2016-04-01T01:31:28.717Z,0
2016-04-01T01:32:28.720Z,0
2016-04-01T01:33:28.956Z,0
2016-04-01T01:34:28.725Z,0
2016-04-01T01:35:28.727Z,0
2016-04-01T01:36:28.745Z,0
2016-04-01T01:37:28.748Z,0
2016-04-01T01:38:28.767Z,0
2016-04-01T01:39:28.753Z,0
2016-04-01T01:40:28.772Z,0
2016-04-01T01:41:28.775Z,0
2016-04-01T01:42:28.777Z,0
2016-04-01T01:43:28.780Z,0
2016-04-01T01:44:28.798Z,0
2016-04-01T01:45:28.802Z,0
2016-04-01T01:46:28.835Z,0
2016-04-01T01:47:28.838Z,0
2016-04-01T01:48:28.794Z,0
2016-04-01T01:49:28.843Z,0
2016-04-01T01:50:28.862Z,0
2016-04-01T01:51:28.849Z,0
2016-04-01T01:52:28.851Z,0
2016-04-01T01:53:28.870Z,0
2016-04-01T01:54:28.873Z,0
2016-04-01T01:55:28.876Z,0
2016-04-01T01:56:28.878Z,0
2016-04-01T01:57:28.896Z,0
2016-04-01T01:58:28.899Z,0
2016-04-01T01:59:28.901Z,0
2016-04-01T02:00:28.904Z,0
2016-04-01T02:01:28.922Z,0
2016-04-01T02:02:28.925Z,0
2016-04-01T02:03:29.115Z,0
2016-04-01T02:04:28.193Z,0
2016-04-01T02:05:28.948Z,0
2016-04-01T02:06:28.951Z,0
2016-04-01T02:07:28.798Z,0
2016-04-01T02:08:28.961Z,0
2016-04-01T02:09:28.964Z,0
2016-04-01T02:10:28.983Z,0
2016-04-01T02:11:29.002Z,0
2016-04-01T02:12:29.004Z,0
2016-04-01T02:13:29.007Z,0
2016-04-01T02:14:29.024Z,0
2016-04-01T02:15:29.027Z,0
2016-04-01T02:16:29.030Z,0
2016-04-01T02:17:29.033Z,0
2016-04-01T02:18:29.036Z,0
2016-04-01T02:19:29.038Z,0
2016-04-01T02:20:29.040Z,0
2016-04-01T02:21:29.059Z,0
2016-04-01T02:22:29.062Z,0
2016-04-01T02:23:29.080Z,0
2016-04-01T02:24:29.114Z,0
2016-04-01T02:25:29.101Z,0
2016-04-01T02:26:29.104Z,0
2016-04-01T02:27:29.123Z,0
2016-04-01T02:28:29.110Z,0
2016-04-01T02:29:29.128Z,0
2016-04-01T02:30:29.115Z,0
2016-04-01T02:31:29.180Z,0
2016-04-01T02:32:29.136Z,0
2016-04-01T02:33:29.026Z,0
2016-04-01T02:34:29.156Z,0
2016-04-01T02:35:29.175Z,0
2016-04-01T02:36:29.178Z,0
2016-04-01T02:37:29.181Z,0
2016-04-01T02:38:29.183Z,0
2016-04-01T02:39:29.202Z,0
2016-04-01T02:40:29.204Z,0
2016-04-01T02:41:29.207Z,0
2016-04-01T02:42:29.224Z,0
2016-04-01T02:43:29.212Z,0
2016-04-01T02:44:29.230Z,0
2016-04-01T02:45:29.232Z,0
2016-04-01T02:46:29.251Z,0
2016-04-01T02:47:29.238Z,0
2016-04-01T02:48:29.350Z,0
2016-04-01T02:49:29.274Z,0
2016-04-01T02:50:29.277Z,0
2016-04-01T02:51:29.265Z,0
2016-04-01T02:52:29.299Z,0
2016-04-01T02:53:29.286Z,0
2016-04-01T02:54:29.304Z,0
2016-04-01T02:55:29.307Z,0
2016-04-01T02:56:29.310Z,0
2016-04-01T02:57:29.328Z,0
2016-04-01T02:58:29.331Z,0
2016-04-01T02:59:29.334Z,0
2016-04-01T03:00:29.351Z,0
2016-04-01T03:01:29.339Z,0
2016-04-01T03:02:29.389Z,0
2016-04-01T03:03:29.516Z,0
2016-04-01T03:04:29.344Z,0
2016-04-01T03:05:29.378Z,0
2016-04-01T03:06:29.380Z,0
2016-04-01T03:07:29.400Z,0
2016-04-01T03:08:29.402Z,0
2016-04-01T03:09:29.404Z,0
2016-04-01T03:10:29.423Z,0
2016-04-01T03:11:29.425Z,0
2016-04-01T03:12:29.428Z,0
2016-04-01T03:13:29.447Z,0
2016-04-01T03:14:29.433Z,0
2016-04-01T03:15:29.436Z,0
2016-04-01T03:16:29.454Z,0
2016-04-01T03:17:29.457Z,0
2016-04-01T03:18:29.537Z,0
2016-04-01T03:19:29.477Z,0
2016-04-01T03:20:29.480Z,0
2016-04-01T03:21:29.499Z,0
2016-04-01T03:22:29.502Z,0
2016-04-01T03:23:29.520Z,0
2016-04-01T03:24:29.523Z,0
2016-04-01T03:25:29.526Z,0
2016-04-01T03:26:29.528Z,0
2016-04-01T03:27:29.531Z,0
2016-04-01T03:28:29.534Z,0
2016-04-01T03:29:29.599Z,0
2016-04-01T03:30:29.554Z,0
2016-04-01T03:31:29.557Z,0
2016-04-01T03:32:29.576Z,0
2016-04-01T03:33:29.641Z,0
2016-04-01T03:34:29.596Z,0
2016-04-01T03:35:29.661Z,0
2016-04-01T03:36:29.617Z,0
2016-04-01T03:37:29.620Z,0
2016-04-01T03:38:29.623Z,0
2016-04-01T03:39:29.610Z,0
2016-04-01T03:40:29.628Z,0
2016-04-01T03:41:29.631Z,0
2016-04-01T03:42:29.633Z,0
2016-04-01T03:43:29.652Z,0
2016-04-01T03:44:29.639Z,0
2016-04-01T03:45:29.658Z,0
2016-04-01T03:46:29.660Z,0
2016-04-01T03:47:29.678Z,0
2016-04-01T03:48:29.463Z,0
2016-04-01T03:49:29.699Z,0
2016-04-01T03:50:29.702Z,0
2016-04-01T03:51:29.721Z,0
2016-04-01T03:52:29.723Z,0
2016-04-01T03:53:29.726Z,0
2016-04-01T03:54:29.713Z,0
2016-04-01T03:55:29.747Z,0
2016-04-01T03:56:29.749Z,0
2016-04-01T03:57:29.767Z,0
2016-04-01T03:58:29.770Z,0
2016-04-01T03:59:29.773Z,0
2016-04-01T04:00:29.759Z,0
2016-04-01T04:01:29.794Z,0
2016-04-01T04:02:29.812Z,0
2016-04-01T04:03:29.831Z,0
2016-04-01T04:04:29.803Z,0
2016-04-01T04:05:29.789Z,0
2016-04-01T04:06:29.808Z,0
2016-04-01T04:07:29.811Z,0
2016-04-01T04:08:29.828Z,0
2016-04-01T04:09:29.831Z,0
2016-04-01T04:10:29.834Z,0
2016-04-01T04:11:29.852Z,0
2016-04-01T04:12:29.558Z,0
2016-04-01T04:13:29.858Z,0
2016-04-01T04:14:29.860Z,0
2016-04-01T04:15:29.878Z,0
2016-04-01T04:16:29.881Z,0
2016-04-01T04:17:29.900Z,0
2016-04-01T04:18:30.011Z,0
2016-04-01T04:19:29.905Z,0
2016-04-01T04:20:29.908Z,0
2016-04-01T04:21:29.910Z,0
2016-04-01T04:22:29.929Z,0
2016-04-01T04:23:29.947Z,0
2016-04-01T04:24:29.950Z,0
2016-04-01T04:25:29.952Z,0
2016-04-01T04:26:29.955Z,0
2016-04-01T04:27:29.958Z,0
2016-04-01T04:28:29.977Z,0
2016-04-01T04:29:29.995Z,0
2016-04-01T04:30:29.982Z,0
2016-04-01T04:31:29.985Z,0
2016-04-01T04:32:30.003Z,0
2016-04-01T04:33:30.052Z,0
2016-04-01T04:34:30.023Z,0
2016-04-01T04:35:30.026Z,0
2016-04-01T04:36:30.029Z,0
2016-04-01T04:37:30.031Z,0
2016-04-01T04:38:30.050Z,0
2016-04-01T04:39:30.068Z,0
2016-04-01T04:40:30.055Z,0
2016-04-01T04:41:30.073Z,0
2016-04-01T04:42:30.076Z,0
2016-04-01T04:43:30.079Z,0
2016-04-01T04:44:30.114Z,0
2016-04-01T04:45:30.100Z,0
2016-04-01T04:46:30.103Z,0
2016-04-01T04:47:30.105Z,0
2016-04-01T04:48:30.139Z,0
2016-04-01T04:49:30.127Z,0
2016-04-01T04:50:30.129Z,4
2016-04-01T04:51:30.147Z,4
2016-04-01T04:52:30.150Z,4
2016-04-01T04:53:30.152Z,4
2016-04-01T04:54:30.155Z,4
2016-04-01T04:55:30.158Z,4
2016-04-01T04:56:30.160Z,4
2016-04-01T04:57:30.164Z,4
2016-04-01T04:58:30.213Z,4
2016-04-01T04:59:30.184Z,4
2016-04-01T05:00:30.219Z,8
2016-04-01T05:01:30.221Z,8
2016-04-01T05:02:30.208Z,4
2016-04-01T05:03:30.305Z,8
2016-04-01T05:04:30.245Z,8
2016-04-01T05:05:30.232Z,8
2016-04-01T05:06:30.250Z,8
2016-04-01T05:07:30.284Z,8
2016-04-01T05:08:30.302Z,12
2016-04-01T05:09:30.289Z,8
2016-04-01T05:10:30.292Z,8
2016-04-01T05:11:30.311Z,8
2016-04-01T05:12:30.297Z,12
2016-04-01T05:13:30.301Z,12
2016-04-01T05:14:30.319Z,12
2016-04-01T05:15:29.586Z,12
2016-04-01T05:16:30.309Z,12
2016-04-01T05:17:30.327Z,8
2016-04-01T05:18:30.376Z,8
2016-04-01T05:19:30.332Z,12
2016-04-01T05:20:30.350Z,8
2016-04-01T05:21:30.369Z,12
2016-04-01T05:22:30.372Z,12
2016-04-01T05:23:30.358Z,16
2016-04-01T05:24:30.377Z,12
2016-04-01T05:25:30.364Z,8
2016-04-01T05:26:30.367Z,8
2016-04-01T05:27:30.401Z,12
2016-04-01T05:28:30.387Z,12
2016-04-01T05:29:30.390Z,12
2016-04-01T05:30:30.252Z,12
2016-04-01T05:31:30.412Z,12
2016-04-01T05:32:30.414Z,12
2016-04-01T05:33:30.448Z,12
2016-04-01T05:34:30.435Z,16
2016-04-01T05:35:30.453Z,16
2016-04-01T05:36:30.471Z,16
2016-04-01T05:37:30.459Z,16
2016-04-01T05:38:30.477Z,16
2016-04-01T05:39:30.465Z,16
2016-04-01T05:40:30.482Z,16
2016-04-01T05:41:30.516Z,16
2016-04-01T05:42:30.488Z,16
2016-04-01T05:43:30.490Z,20
2016-04-01T05:44:30.493Z,24
2016-04-01T05:45:30.542Z,20
2016-04-01T05:46:30.514Z,20
2016-04-01T05:47:30.517Z,20
2016-04-01T05:48:30.551Z,20
2016-04-01T05:49:30.553Z,24
2016-04-01T05:50:30.571Z,24
2016-04-01T05:51:30.574Z,20
2016-04-01T05:52:30.561Z,20
2016-04-01T05:53:30.564Z,20
2016-04-01T05:54:30.567Z,16
2016-04-01T05:55:30.601Z,20
2016-04-01T05:56:30.588Z,20
2016-04-01T05:57:30.591Z,20
2016-04-01T05:58:30.609Z,20
2016-04-01T05:59:30.612Z,20
2016-04-01T06:00:30.615Z,24
2016-04-01T06:01:30.617Z,20
2016-04-01T06:02:30.652Z,24
2016-04-01T06:03:30.653Z,20
2016-04-01T06:04:30.640Z,20
2016-04-01T06:05:30.659Z,20
2016-04-01T06:06:30.645Z,24
2016-04-01T06:07:30.540Z,28
2016-04-01T06:08:30.686Z,28
2016-04-01T06:09:30.533Z,32
2016-04-01T06:10:30.708Z,32
2016-04-01T06:11:30.711Z,36
2016-04-01T06:12:30.744Z,32
2016-04-01T06:13:30.716Z,36
2016-04-01T06:14:30.735Z,36
2016-04-01T06:15:30.722Z,40
2016-04-01T06:16:30.740Z,40
2016-04-01T06:17:30.711Z,36
2016-04-01T06:18:30.745Z,36
2016-04-01T06:19:30.748Z,40
2016-04-01T06:20:30.751Z,40
2016-04-01T06:21:30.768Z,44
2016-04-01T06:22:30.801Z,44
2016-04-01T06:23:30.789Z,44
2016-04-01T06:24:30.793Z,44
2016-04-01T06:25:30.795Z,36
2016-04-01T06:26:30.797Z,36
2016-04-01T06:27:30.800Z,40
2016-04-01T06:28:30.818Z,48
2016-04-01T06:29:30.806Z,56
2016-04-01T06:30:30.839Z,52
2016-04-01T06:31:30.826Z,60
2016-04-01T06:32:30.829Z,76
2016-04-01T06:33:30.848Z,84
2016-04-01T06:34:30.851Z,76
2016-04-01T06:35:30.853Z,68
2016-04-01T06:36:30.872Z,72
2016-04-01T06:37:30.890Z,76
2016-04-01T06:38:30.908Z,76
2016-04-01T06:39:30.895Z,76
2016-04-01T06:40:30.898Z,68
2016-04-01T06:41:30.900Z,64
2016-04-01T06:42:30.903Z,60
2016-04-01T06:43:30.905Z,60
2016-04-01T06:44:30.908Z,60
2016-04-01T06:45:30.927Z,56
2016-04-01T06:46:30.945Z,64
2016-04-01T06:47:30.963Z,64
2016-04-01T06:48:30.966Z,68
2016-04-01T06:49:30.969Z,80
2016-04-01T06:50:30.972Z,84
2016-04-01T06:51:31.005Z,88
2016-04-01T06:52:30.977Z,80
2016-04-01T06:53:31.011Z,68
2016-04-01T06:54:30.998Z,60
2016-04-01T06:55:31.001Z,60
2016-04-01T06:56:31.004Z,64
2016-04-01T06:57:31.006Z,68
2016-04-01T06:58:31.009Z,64
2016-04-01T06:59:31.042Z,64
2016-04-01T07:00:31.045Z,72
2016-04-01T07:01:31.032Z,76
2016-04-01T07:02:31.051Z,80
2016-04-01T07:03:31.084Z,84
2016-04-01T07:04:31.056Z,104
2016-04-01T07:05:31.059Z,100
2016-04-01T07:06:31.062Z,80
2016-04-01T07:07:31.080Z,72
2016-04-01T07:08:31.113Z,60
2016-04-01T07:09:31.116Z,68
2016-04-01T07:10:31.103Z,76
2016-04-01T07:11:31.106Z,80
2016-04-01T07:12:31.125Z,76
2016-04-01T07:13:31.111Z,76
2016-04-01T07:14:31.177Z,80
2016-04-01T07:15:31.148Z,72
2016-04-01T07:16:31.151Z,68
2016-04-01T07:17:31.154Z,72
2016-04-01T07:18:31.172Z,88
2016-04-01T07:19:31.175Z,88
2016-04-01T07:20:31.194Z,144
2016-04-01T07:21:31.196Z,184
2016-04-01T07:22:31.182Z,204
2016-04-01T07:23:31.201Z,220
2016-04-01T07:24:31.189Z,220
2016-04-01T07:25:31.206Z,240
2016-04-01T07:26:31.256Z,280
2016-04-01T07:27:31.243Z,284
2016-04-01T07:28:31.230Z,276
2016-04-01T07:29:31.248Z,284
2016-04-01T07:30:31.236Z,304
2016-04-01T07:31:31.254Z,336
2016-04-01T07:32:31.256Z,368
2016-04-01T07:33:31.135Z,368
2016-04-01T07:34:31.278Z,392
2016-04-01T07:35:31.296Z,388
2016-04-01T07:36:31.299Z,364
2016-04-01T07:37:31.302Z,340
2016-04-01T07:38:31.304Z,320
2016-04-01T07:39:31.307Z,296
2016-04-01T07:40:31.342Z,300
2016-04-01T07:41:31.328Z,300
2016-04-01T07:42:31.331Z,304
2016-04-01T07:43:31.334Z,308
2016-04-01T07:44:31.323Z,320
2016-04-01T07:45:31.325Z,324
2016-04-01T07:46:31.313Z,328
2016-04-01T07:47:31.315Z,320
2016-04-01T07:48:31.365Z,316
2016-04-01T07:49:31.315Z,304
2016-04-01T07:50:31.296Z,288
2016-04-01T07:51:31.293Z,280
2016-04-01T07:52:31.307Z,292
2016-04-01T07:53:31.305Z,308
2016-04-01T07:54:31.304Z,328
2016-04-01T07:55:31.336Z,360
2016-04-01T07:56:31.368Z,340
2016-04-01T07:57:31.322Z,276
2016-04-01T07:58:31.355Z,260
2016-04-01T07:59:31.357Z,260
2016-04-01T08:00:31.202Z,260
2016-04-01T08:01:31.361Z,288
2016-04-01T08:02:31.363Z,300
2016-04-01T08:03:31.396Z,288
2016-04-01T08:04:31.382Z,296
2016-04-01T08:05:31.400Z,292
2016-04-01T08:06:31.402Z,284
2016-04-01T08:07:31.405Z,308
2016-04-01T08:08:31.407Z,336
2016-04-01T08:09:31.426Z,336
2016-04-01T08:10:31.412Z,328
2016-04-01T08:11:31.431Z,300
2016-04-01T08:12:31.449Z,292
2016-04-01T08:13:31.437Z,280
2016-04-01T08:14:31.439Z,284
2016-04-01T08:15:31.457Z,292
2016-04-01T08:16:31.476Z,284
2016-04-01T08:17:31.478Z,280
2016-04-01T08:18:31.465Z,288
2016-04-01T08:19:31.484Z,308
2016-04-01T08:20:31.486Z,308
2016-04-01T08:21:31.504Z,288
2016-04-01T08:22:31.506Z,296
2016-04-01T08:23:31.509Z,304
2016-04-01T08:24:31.512Z,308
2016-04-01T08:25:31.515Z,312
2016-04-01T08:26:30.799Z,332
2016-04-01T08:27:31.551Z,372
2016-04-01T08:28:31.538Z,376
2016-04-01T08:29:31.542Z,404
2016-04-01T08:30:31.544Z,452
2016-04-01T08:31:31.563Z,532
2016-04-01T08:32:31.581Z,576
2016-04-01T08:33:31.568Z,560
2016-04-01T08:34:31.586Z,644
2016-04-01T08:35:31.433Z,596
2016-04-01T08:36:31.607Z,576
2016-04-01T08:37:31.626Z,544
2016-04-01T08:38:31.613Z,596
2016-04-01T08:39:31.615Z,592
2016-04-01T08:40:31.634Z,620
2016-04-01T08:41:31.637Z,592
2016-04-01T08:42:31.639Z,540
2016-04-01T08:43:31.657Z,732
2016-04-01T08:44:31.660Z,600
2016-04-01T08:45:31.679Z,508
2016-04-01T08:46:31.681Z,548
2016-04-01T08:47:31.668Z,540
2016-04-01T08:48:31.749Z,412
2016-04-01T08:49:31.548Z,432
2016-04-01T08:50:31.707Z,432
2016-04-01T08:51:31.726Z,436
2016-04-01T08:52:31.745Z,420
2016-04-01T08:53:31.731Z,464
2016-04-01T08:54:31.734Z,468
2016-04-01T08:55:31.753Z,468
2016-04-01T08:56:31.755Z,460
2016-04-01T08:57:31.758Z,504
2016-04-01T08:58:31.775Z,488
2016-04-01T08:59:31.778Z,508
2016-04-01T09:00:31.781Z,556
2016-04-01T09:01:31.783Z,532
2016-04-01T09:02:31.786Z,504
2016-04-01T09:03:31.071Z,568
2016-04-01T09:04:31.791Z,540
2016-04-01T09:05:31.826Z,496
2016-04-01T09:06:31.829Z,548
2016-04-01T09:07:31.847Z,532
2016-04-01T09:08:31.865Z,488
2016-04-01T09:09:31.868Z,440
2016-04-01T09:10:31.871Z,456
2016-04-01T09:11:31.873Z,536
2016-04-01T09:12:31.876Z,520
2016-04-01T09:13:31.879Z,512
2016-04-01T09:14:31.881Z,436
2016-04-01T09:15:31.884Z,396
2016-04-01T09:16:31.918Z,404
2016-04-01T09:17:31.921Z,416
2016-04-01T09:18:31.970Z,436
2016-04-01T09:19:31.973Z,444
2016-04-01T09:20:31.945Z,428
2016-04-01T09:21:31.931Z,420
2016-04-01T09:22:31.965Z,436
2016-04-01T09:23:31.967Z,428
2016-04-01T09:24:31.970Z,444
2016-04-01T09:25:31.973Z,444
2016-04-01T09:26:31.975Z,440
2016-04-01T09:27:31.978Z,448
2016-04-01T09:28:31.997Z,448
2016-04-01T09:29:31.999Z,448
2016-04-01T09:30:32.018Z,460
2016-04-01T09:31:32.005Z,480
2016-04-01T09:32:32.024Z,484
2016-04-01T09:33:32.027Z,524
2016-04-01T09:34:32.045Z,532
2016-04-01T09:35:32.078Z,568
2016-04-01T09:36:32.066Z,612
2016-04-01T09:37:32.053Z,576
2016-04-01T09:38:31.352Z,536
2016-04-01T09:39:32.089Z,484
2016-04-01T09:40:32.091Z,344
2016-04-01T09:41:32.094Z,316
2016-04-01T09:42:32.097Z,280
2016-04-01T09:43:32.100Z,272
2016-04-01T09:44:32.118Z,292
2016-04-01T09:45:32.152Z,312
2016-04-01T09:46:32.140Z,296
2016-04-01T09:47:32.143Z,300
2016-04-01T09:48:32.208Z,320
2016-04-01T09:49:32.163Z,392
2016-04-01T09:50:32.182Z,436
2016-04-01T09:51:32.184Z,460
2016-04-01T09:52:32.203Z,440
2016-04-01T09:53:32.189Z,428
2016-04-01T09:54:32.192Z,360
2016-04-01T09:55:32.211Z,340
2016-04-01T09:56:32.198Z,320
2016-04-01T09:57:32.216Z,308
2016-04-01T09:58:32.219Z,324
2016-04-01T09:59:32.253Z,348
2016-04-01T10:00:32.255Z,336
2016-04-01T10:01:32.242Z,364
2016-04-01T10:02:32.260Z,404
2016-04-01T10:03:32.325Z,368
2016-04-01T10:04:32.281Z,324
2016-04-01T10:05:32.299Z,316
2016-04-01T10:06:32.302Z,344
2016-04-01T10:07:32.211Z,368
2016-04-01T10:08:32.292Z,392
2016-04-01T10:09:32.295Z,404
2016-04-01T10:10:32.314Z,408
2016-04-01T10:11:32.316Z,408
2016-04-01T10:12:32.319Z,416
2016-04-01T10:13:32.352Z,424
2016-04-01T10:14:32.355Z,428
2016-04-01T10:15:32.373Z,420
2016-04-01T10:16:32.376Z,420
2016-04-01T10:17:32.379Z,476
2016-04-01T10:18:32.382Z,432
2016-04-01T10:19:32.401Z,404
2016-04-01T10:20:32.403Z,380
2016-04-01T10:21:32.406Z,372
2016-04-01T10:22:32.408Z,320
2016-04-01T10:23:32.426Z,280
2016-04-01T10:24:32.445Z,260
2016-04-01T10:25:32.447Z,224
2016-04-01T10:26:32.434Z,216
2016-04-01T10:27:32.452Z,216
2016-04-01T10:28:32.456Z,196
2016-04-01T10:29:32.458Z,264
2016-04-01T10:30:32.476Z,332
2016-04-01T10:31:32.478Z,380
2016-04-01T10:32:32.528Z,376
2016-04-01T10:33:32.500Z,356
2016-04-01T10:34:32.519Z,336
2016-04-01T10:35:32.522Z,336
2016-04-01T10:36:32.525Z,336
2016-04-01T10:37:32.527Z,348
2016-04-01T10:38:32.530Z,344
2016-04-01T10:39:32.516Z,340
2016-04-01T10:40:32.535Z,332
2016-04-01T10:41:32.537Z,324
2016-04-01T10:42:32.555Z,316
2016-04-01T10:43:32.558Z,312
2016-04-01T10:44:32.561Z,280
2016-04-01T10:45:32.564Z,280
2016-04-01T10:46:32.566Z,280
2016-04-01T10:47:32.569Z,276
2016-04-01T10:48:32.603Z,272
2016-04-01T10:49:32.590Z,276
2016-04-01T10:50:32.576Z,288
2016-04-01T10:51:32.595Z,304
2016-04-01T10:52:32.614Z,328
2016-04-01T10:53:32.617Z,348
2016-04-01T10:54:32.635Z,384
2016-04-01T10:55:32.481Z,436
2016-04-01T10:56:32.828Z,432
2016-04-01T10:57:32.502Z,368
2016-04-01T10:58:32.661Z,368
2016-04-01T10:59:32.679Z,376
2016-04-01T11:00:32.682Z,396
2016-04-01T11:01:32.669Z,400
2016-04-01T11:02:32.687Z,408
2016-04-01T11:03:32.706Z,400
2016-04-01T11:04:32.692Z,380
2016-04-01T11:05:32.695Z,368
2016-04-01T11:06:32.713Z,360
2016-04-01T11:07:32.709Z,352
2016-04-01T11:08:32.728Z,356
2016-04-01T11:09:32.747Z,364
2016-04-01T11:10:32.750Z,376
2016-04-01T11:11:32.752Z,384
2016-04-01T11:12:32.755Z,412
2016-04-01T11:13:32.772Z,428
2016-04-01T11:14:32.775Z,444
2016-04-01T11:15:32.778Z,436
2016-04-01T11:16:32.797Z,456
2016-04-01T11:17:32.800Z,444
2016-04-01T11:18:32.802Z,428
2016-04-01T11:19:32.805Z,444
2016-04-01T11:20:32.807Z,500
2016-04-01T11:21:32.825Z,572
2016-04-01T11:22:32.827Z,588
2016-04-01T11:23:32.846Z,552
2016-04-01T11:24:32.849Z,528
2016-04-01T11:25:32.836Z,524
2016-04-01T11:26:32.855Z,616
2016-04-01T11:27:32.857Z,636
2016-04-01T11:28:32.876Z,624
2016-04-01T11:29:32.878Z,692
2016-04-01T11:30:32.881Z,748
2016-04-01T11:31:32.898Z,712
2016-04-01T11:32:32.917Z,720
2016-04-01T11:33:32.936Z,620
2016-04-01T11:34:32.923Z,548
2016-04-01T11:35:32.942Z,528
2016-04-01T11:36:32.928Z,520
2016-04-01T11:37:32.947Z,516
2016-04-01T11:38:32.949Z,496
2016-04-01T11:39:32.967Z,476
2016-04-01T11:40:33.001Z,456
2016-04-01T11:41:33.004Z,452
2016-04-01T11:42:32.976Z,436
2016-04-01T11:43:32.994Z,452
2016-04-01T11:44:33.012Z,484
2016-04-01T11:45:33.000Z,552
2016-04-01T11:46:33.049Z,572
2016-04-01T11:47:32.864Z,624
2016-04-01T11:48:33.038Z,888
2016-04-01T11:49:33.026Z,1072
2016-04-01T11:50:33.044Z,1200
2016-04-01T11:51:33.078Z,1248
2016-04-01T11:52:33.081Z,924
2016-04-01T11:53:33.068Z,796
2016-04-01T11:54:33.086Z,752
2016-04-01T11:55:33.088Z,700
2016-04-01T11:56:33.091Z,560
2016-04-01T11:57:33.093Z,548
2016-04-01T11:58:33.112Z,616
2016-04-01T11:59:33.131Z,684
2016-04-01T12:00:33.134Z,756
2016-04-01T12:01:33.121Z,640
2016-04-01T12:02:33.123Z,1284
2016-04-01T12:03:33.142Z,1652
2016-04-01T12:04:33.159Z,1768
2016-04-01T12:05:33.178Z,1752
2016-04-01T12:06:33.196Z,1720
2016-04-01T12:07:33.184Z,1416
2016-04-01T12:08:33.187Z,1244
2016-04-01T12:09:33.189Z,928
2016-04-01T12:10:33.207Z,1888
2016-04-01T12:11:33.209Z,1936
2016-04-01T12:12:33.212Z,1660
2016-04-01T12:13:33.214Z,592
2016-04-01T12:14:33.217Z,496
2016-04-01T12:15:33.236Z,696
2016-04-01T12:16:33.223Z,1292
2016-04-01T12:17:33.273Z,480
2016-04-01T12:18:33.417Z,376
2016-04-01T12:19:33.278Z,344
2016-04-01T12:20:33.281Z,308
2016-04-01T12:21:34.283Z,332
2016-04-01T12:22:33.302Z,368
2016-04-01T12:23:33.304Z,428
2016-04-01T12:24:33.307Z,456
2016-04-01T12:25:33.326Z,440
2016-04-01T12:26:33.312Z,460
2016-04-01T12:27:33.316Z,416
2016-04-01T12:28:33.334Z,388
2016-04-01T12:29:33.758Z,392
2016-04-01T12:30:33.354Z,416
2016-04-01T12:31:33.342Z,440
2016-04-01T12:32:33.376Z,456
2016-04-01T12:33:33.394Z,444
2016-04-01T12:34:33.413Z,436
2016-04-01T12:35:33.399Z,432
2016-04-01T12:36:33.402Z,416
2016-04-01T12:37:33.404Z,460
2016-04-01T12:38:33.423Z,520
2016-04-01T12:39:33.410Z,624
2016-04-01T12:40:33.412Z,792
2016-04-01T12:41:33.431Z,904
2016-04-01T12:42:33.449Z,772
2016-04-01T12:43:33.468Z,620
2016-04-01T12:44:33.486Z,488
2016-04-01T12:45:33.489Z,392
2016-04-01T12:46:33.475Z,368
2016-04-01T12:47:33.494Z,352
2016-04-01T12:48:33.513Z,332
2016-04-01T12:49:33.515Z,332
2016-04-01T12:50:33.518Z,344
2016-04-01T12:51:33.566Z,364
2016-04-01T12:52:33.523Z,380
2016-04-01T12:53:33.526Z,396
2016-04-01T12:54:33.544Z,396
2016-04-01T12:55:33.532Z,416
2016-04-01T12:56:33.550Z,436
2016-04-01T12:57:33.583Z,464
2016-04-01T12:58:33.586Z,452
2016-04-01T12:59:33.573Z,432
2016-04-01T13:00:33.577Z,436
2016-04-01T13:01:33.579Z,428
2016-04-01T13:02:33.597Z,408
2016-04-01T13:03:33.632Z,400
2016-04-01T13:04:33.634Z,388
2016-04-01T13:05:33.637Z,396
2016-04-01T13:06:33.670Z,412
2016-04-01T13:07:33.657Z,424
2016-04-01T13:08:33.659Z,428
2016-04-01T13:09:33.647Z,440
2016-04-01T13:10:33.650Z,464
2016-04-01T13:11:33.668Z,480
2016-04-01T13:12:33.671Z,468
2016-04-01T13:13:33.689Z,432
2016-04-01T13:14:33.676Z,428
2016-04-01T13:15:33.710Z,480
2016-04-01T13:16:33.713Z,528
2016-04-01T13:17:33.731Z,544
2016-04-01T13:18:33.733Z,524
2016-04-01T13:19:33.736Z,556
2016-04-01T13:20:33.566Z,624
2016-04-01T13:21:33.727Z,728
2016-04-01T13:22:33.744Z,616
2016-04-01T13:23:33.763Z,532
2016-04-01T13:24:33.765Z,432
2016-04-01T13:25:33.783Z,412
2016-04-01T13:26:33.786Z,452
2016-04-01T13:27:33.789Z,448
2016-04-01T13:28:33.792Z,412
2016-04-01T13:29:33.795Z,432
2016-04-01T13:30:33.813Z,472
2016-04-01T13:31:33.816Z,456
2016-04-01T13:32:33.818Z,392
2016-04-01T13:33:33.837Z,388
2016-04-01T13:34:33.839Z,388
2016-04-01T13:35:33.857Z,404
2016-04-01T13:36:33.845Z,476
2016-04-01T13:37:33.862Z,532
2016-04-01T13:38:33.882Z,528
2016-04-01T13:39:33.884Z,504
2016-04-01T13:40:33.887Z,528
2016-04-01T13:41:33.905Z,536
2016-04-01T13:42:33.908Z,472
2016-04-01T13:43:33.926Z,380
2016-04-01T13:44:33.928Z,352
2016-04-01T13:45:33.916Z,360
2016-04-01T13:46:33.918Z,388
2016-04-01T13:47:33.936Z,412
2016-04-01T13:48:33.814Z,460
2016-04-01T13:49:33.958Z,436
2016-04-01T13:50:33.976Z,396
2016-04-01T13:51:33.978Z,372
2016-04-01T13:52:33.966Z,348
2016-04-01T13:53:33.983Z,336
2016-04-01T13:54:34.003Z,324
2016-04-01T13:55:34.021Z,316
2016-04-01T13:56:34.024Z,304
2016-04-01T13:57:34.011Z,316
2016-04-01T13:58:34.044Z,332
2016-04-01T13:59:34.032Z,348
2016-04-01T14:00:34.034Z,332
2016-04-01T14:01:34.037Z,328
2016-04-01T14:02:34.054Z,328
2016-04-01T14:03:34.057Z,324
2016-04-01T14:04:34.060Z,340
2016-04-01T14:05:34.079Z,344
2016-04-01T14:06:34.082Z,352
2016-04-01T14:07:34.085Z,352
2016-04-01T14:08:34.103Z,364
2016-04-01T14:09:34.106Z,364
2016-04-01T14:10:34.358Z,372
2016-04-01T14:11:34.126Z,380